Home Music Articles Forums Blog Chat More...      
gadzooks
(Stan Gadziola)


Member Since: Tuesday, February 15 2011 @ 07:12 PM CST
Contact: send a note
Homepage: http://
Location: Halifax, Nova Scotia Canada
Song Comments: 2808
Song Votes: 0
Forum Posts: 115
Weekly Points: 9.20
Total Points: 6137.35
Bio:
I am a visual artist and a guy who likes to make music....
I have enjoyed making tunes since a young boy ...
Guitar is my instrument but I can get what I need out of most other instruments to express an idea. I love ALL genre's of music but am drawn to bluesy, jazzy soul driven sounds. But sometimes I feel in an ambient mood or need to get down to earth with some acoustic sounds. I have always played in some form of a part time band but spend most of my musical energies these days in my man cave with my cyber band expressing myself through the magic of home recording.

Band Members: fender hot rod deluxe,1963 jazzmaster, godin acoustic electric, cheap bass, oscar schmidt uke, blues harp, midi keys, sure 58, Garageband and me.
gadzooks's Songs (87)
Date Title Rating Hits Genre Last Comment Status
04.17.14 Thinkin' 'bout 'thinkin' 0.00 (0) 344 (15) Blues (contemporary) 04.24.14 Active
03.17.14 Just Dreaming 0.00 (0) 693 (17) Acoustic Rock 04.05.14 Active
03.10.14 Melancholy 0.00 (0) 415 (13) Jazz (instrumental) 03.14.14 Active
01.26.14 Rust'n Bone 0.00 (0) 851 (29) Folk (contemporary) 03.12.14 Active
01.07.14 Snowed In 0.00 (0) 608 (17) Other 01.25.14 Active
12.31.13 Happy New Year 0.00 (0) 719 (12) Acoustic 01.06.14 Active
12.26.13 Insanity 0.00 (0) 603 (21) Progressive Rock 01.04.14 Active
12.21.13 White Christmas 0.00 (0) 695 (21) Holiday 12.27.13 Active
12.12.13 Christmas Blues 0.00 (0) 707 (17) Holiday 12.19.13 Active
12.06.13 To the Light LSP2 0.00 (0) 565 (20) Acoustic Rock 12.14.13 Active
06.11.13 Coulda Shoulda 0.00 (0) 1047 (25) Pop (Alternative) 10.07.13 Active
05.31.13 Travellers Blues (MJCC2013) 0.00 (0) 1038 (27) Blues (contemporary) 06.11.13 Active
05.20.13 Song of Life 0.00 (0) 718 (23) Reggae 05.27.13 Active
05.12.13 A Fly 0.00 (0) 819 (26) Other 05.24.13 Active
04.27.13 Take It Back 0.00 (0) 867 (31) Rock 03.22.14 Active
04.11.13 Show of Empty Souls 0.00 (0) 1268 (56) Art Rock 04.24.13 Active
03.24.13 Groovy Bacon 0.00 (0) 1012 (25) Funk 04.10.13 Active
03.13.13 Watching Crows Fly 0.00 (0) 1103 (27) Alternative Rock 04.09.13 Active
03.05.13 Mr. Nobody 0.00 (0) 1120 (46) Blues (contemporary) 04.16.13 Active
02.26.13 Skidilydoodap 0.00 (0) 748 (19) Jazz (vocal) 03.05.13 Active
02.19.13 Tonight 0.00 (0) 855 (17) Alternative Rock 02.25.13 Active
02.06.13 Last Sketch 0.00 (0) 1010 (14) Other 02.20.13 Active
01.29.13 Winter 0.00 (0) 884 (26) Jazz (vocal) 02.18.13 Active
01.14.13 Stan's Tune 0.00 (0) 916 (25) Rock (instrumental) 05.10.13 Active
01.06.13 Music of Emotion 0.00 (0) 1063 (34) Rhythm and Blues 01.14.13 Active
12.30.12 Self Indulgence 0.00 (0) 1015 (25) Alternative Rock 01.11.13 Active
12.23.12 Merry Christmas and a Happy New Year 0.00 (0) 1153 (24) Acoustic 01.02.13 Active
12.14.12 Da Da Doom Doom (Doom2012) 0.00 (0) 1437 (32) Alternative Rock 12.22.12 Active
11.26.12 Memories of Marrakesh 0.00 (0) 1251 (29) Rock (instrumental) 12.20.12 Active
11.19.12 Moving to the Centre 0.00 (0) 1308 (36) Art Rock 11.30.12 Active
11.11.12 The End (of the world) 0.00 (0) 1224 (38) Acoustic Rock 12.16.12 Active
09.08.12 The wren song 0.00 (0) 1593 (42) Ambient 11.04.12 Active
08.27.12 Summer's Come and Gone 0.00 (0) 1191 (24) Acoustic 09.29.12 Active
08.16.12 Cruisin' 10.00 (1) 1281 (17) Rockabilly 08.26.12 Active
08.11.12 Turn Back The Time To 69 (Woodstock 2012)Gadzooks/Alackbass 10.00 (1) 1143 (17) Rock & Roll 02.09.13 Active
08.02.12 Coconut Man 10.00 (3) 1377 (29) Jazz Fusion 08.07.12 Active
07.27.12 Yeah... 10.00 (3) 1295 (26) Rhythm and Blues 08.04.12 Active
07.17.12 Burnin" 10.00 (3) 1206 (20) Acoustic Rock 07.26.12 Active
07.10.12 One Day At A Time 10.00 (3) 1415 (22) Acoustic 07.17.12 Active
07.03.12 Time is a Healer 9.80 (5) 1833 (26) A Cappella 07.12.12 Active
06.28.12 Flying 10.00 (2) 1272 (20) Hard Rock 07.10.12 Active
06.20.12 Chester Flatts 10.00 (1) 1569 (23) Bluegrass 02.03.14 Active
06.13.12 The Color of Blue 10.00 (2) 1293 (17) Experimental 07.03.12 Active
06.09.12 Rain Rain 9.85 (5) 1788 (36) Alternative Rock 06.16.12 Active
06.02.12 Xpress yourself 10.00 (1) 1407 (23) Rhythm and Blues 06.10.12 Active
05.24.12 White Collar Suburban Blues 10.00 (3) 1669 (32) Blues (contemporary) 01.16.13 Active
05.14.12 Free Man 9.70 (5) 1660 (44) Folk-Rock 07.03.12 Active
05.06.12 Rhythmic Pulse 10.00 (3) 1755 (37) Rhythm and Blues 05.12.12 Active
04.25.12 Sun Beats Down 10.00 (3) 1539 (33) Folk-Rock 05.16.12 Active
04.18.12 If Today Were My Last Day 10.00 (4) 2226 (36) Alternative Rock 04.26.12 Active
04.10.12 Colors 10.00 (2) 1616 (32) Jazz (instrumental) 04.20.12 Active
04.04.12 Howlin' Demons 9.92 (3) 1601 (30) Blues (contemporary) 04.15.12 Active
03.17.12 Dream Experiment 10.00 (3) 2205 (35) Electronic 04.02.12 Active
03.11.12 Got A Man Cold 9.75 (4) 1684 (31) Acoustic Rock 03.30.12 Active
03.03.12 Night Traveller 10.00 (2) 2264 (59) Art Rock 03.17.12 Active
02.18.12 A thought 9.56 (4) 2217 (44) Acoustic 03.30.12 Active
01.21.12 Such is Life 10.00 (3) 1805 (34) Acoustic 02.24.12 Active
01.15.12 The Circle Game 9.80 (5) 1925 (33) Acoustic 02.24.12 Active
12.31.11 Beetlybop 10.00 (3) 2087 (47) NUjazz 02.24.12 Active
12.03.11 Weekly Jam in C 10.00 (2) 1892 (34) Alternative Rock 03.02.12 Active
11.25.11 Metamorphosis 9.42 (3) 2041 (33) NUjazz 02.09.13 Active
11.18.11 Those Doggone Blues 10.00 (2) 1746 (25) Blues (contemporary) 11.25.11 Active
11.11.11 Time is a groove...... 9.38 (4) 1760 (26) Rock 03.02.12 Active
11.04.11 I'm Upside Down 9.83 (3) 1904 (29) Smooth Jazz 03.19.12 Active
10.29.11 Baggage 10.00 (2) 1620 (25) Other 02.26.12 Active
10.22.11 Instra 10.00 (1) 1560 (33) Acoustic 02.26.12 Active
10.15.11 I Don't Know How To Say Goodbye 10.00 (1) 1924 (22) Alternative Rock 02.26.12 Active
10.08.11 Funktified (DFunkt Challenge) 9.75 (3) 1825 (41) Funk 02.26.12 Active
09.19.11 Chameleon 10.00 (1) 2182 (36) Acoustic 11.28.11 Active
09.12.11 memory 8.50 (1) 1965 (35) Acoustic 09.19.11 Active
09.02.11 In These Turbulent Times 9.88 (2) 2548 (53) Alternative Rock 09.20.11 Active
08.24.11 Chicken Skin 0.00 (0) 2657 (43) Funk 02.18.12 Active
08.16.11 In The Room 0.00 (0) 2217 (38) Alternative Rock 08.26.11 Active
08.07.11 Summer Rain by Neilh79 w/Awigze & Gadzooks 0.00 (0) 2226 (44) Experimental 12.19.11 Active
07.30.11 Astral Tune 9.25 (1) 2092 (45) Acoustic 08.26.11 Active
06.30.11 Funked Up 9.35 (5) 3178 (69) Funk 11.06.11 Active
06.24.11 Bad Luck 9.69 (4) 2769 (81) Blues (contemporary) 07.17.11 Active
06.16.11 Hold On 9.38 (4) 2789 (43) Smooth Jazz 02.26.12 Active
06.09.11 Orchestral Drum 9.42 (3) 2186 (53) Alternative Rock 06.18.11 Active
05.29.11 I Am A Machine 7.63 (2) 2224 (35) Experimental 06.17.11 Active
05.20.11 I lived In an Apartment Building 9.00 (1) 2663 (73) Alternative Rock 06.03.11 Active
05.15.11 Slip Away 10.00 (1) 2218 (34) Smooth Jazz 02.26.12 Active
04.30.11 All In A Day 0.00 (0) 2440 (51) Acoustic Rock 05.17.11 Active
04.22.11 Jibbah Jabbah fool. 0.00 (0) 2229 (13) Funk 05.16.11 Active
04.19.11 rewind 0.00 (0) 2183 (24) Ambient 02.09.13 Active
04.15.11 xperiment 0.00 (0) 2046 (14) Ambient 05.16.11 Active
04.15.11 groove 0.00 (0) 1884 (9) Smooth Jazz 05.31.13 Active
Favorite Songs (1000)
Title Artist Date Genre
Sheep (Strangedream, Sigmund) rok41 04.18.14 Alternative Rock
SECRET SIDE KCsGROOVE 04.18.14 Rock
As Harrison Said DWL 04.17.14 Pop Orchestral
Eine Kleine Nachtsmusik (Einfachen Mix) [Mozart Cover] Ultrabeast 04.17.14 Classical
Am Jazzy Thang Charday 04.13.14 Open Collaborations
Get Where I Belong Bob Rodgers 04.08.14 Alternative Rock
Is Theory Ever Real-Rok41-Sig FEEL 04.07.14 Rock
Egmont Ultrabeast 04.05.14 Classical
movin egobandit 04.04.14 Open Collaborations
Floydian Caravan/Sig sammydix 03.29.14 Psychedelic
Angel grah3am 03.28.14 Rock
The Heartache That You Sowed Charday 03.27.14 Smooth Jazz
Take It Back w/Raven Garni 03.23.14 Gothic Rock
My Soul.... Soundhound 03.22.14 Rhythm and Blues
Crail Sunrise Briguy777 03.22.14 Acoustic
Mr. Rock Goes to the Techno Club mystrag 03.21.14 Rock (instrumental)
Take V H3nry 03.21.14 Jazz (instrumental)
Willie Brown Blues thetiler 03.19.14 Fingerstyle Guitar
Rolling in Clover JakesterL 03.19.14 Pop (Alternative)
Bruce Banner (Human Nature) tempie 03.19.14 Pop (Alternative)
We Belong Soundhound 03.19.14 Rhythm and Blues
Progressive Palaeography steveg 03.18.14 Acoustic Rock
Don't Leave (remix) Doadars Uncle 03.18.14 Acoustic
Anthem PeterB7858 03.17.14 Fingerstyle Guitar
Listen to the Idiot mfwmiles 03.17.14 Alternative Rock
The Sunken Cathedral davajonah 03.16.14 Classical
I Got Lost Skean 03.16.14 Experimental
IT MUST BE LOVE KCsGROOVE 03.15.14 Rock
Night of Passion w/Lokka Garni 03.14.14 Pop (Alternative)
The Naked Bones Skunkwrx 03.11.14 Art Rock
Spring Time Narad 03.11.14 Classical
Over Fifties Protest song Franciscus_Henri 03.10.14 Folk-Rock
Long Long Winter w/rok41 Vic Holman 03.10.14 Pop (Alternative)
Live and Die XMaramena 03.10.14 Pop (mainstream)
you always have my love Mystified 03.10.14 New Age
nobody makes me feel the way you do -[08-01] woofer3 03.08.14 Country-Western
AN EYE FOR AN EYE KCsGROOVE 03.08.14 Rock
Chasing The Sun musichead 03.01.14 Pop (mainstream)
Aereo Marino_Experiment 03.08.14 Rock (instrumental)
Have It All rok41 02.15.14 Rock
SO HARD TO SEE KCsGROOVE 02.15.14 Rock
Preguntas sammydix 02.14.14 Latin
4 D Glasses Daugrin 02.08.14 Experimental
Sunshine After The Blues Loob 02.08.14 Blues (traditional)
Call my name KCsGROOVE 02.08.14 Rock
Enough w/Lokka Garni 02.03.14 Pop (Alternative)
SEMI-LIVE from Alphonse's Knuckle Room II michaeljayklein 02.02.14 Easy Listening
Needs Some Love TommyBlueBoy 01.30.14 Acoustic
SOME DAYS WILL BE LIKE THAT jiguma 01.30.14 Rhythm and Blues
I'll Never Find Another You thetiler 01.30.14 Folk (contemporary)
Right on Time 2014- feat. David McNair aclarke 01.28.14 Rock
A Future Age (Anchors Away) Brian D 01.28.14 Indie Rock
The Die is Cast stevel 01.27.14 Alternative Rock
Nothing But Air Vic Holman 01.26.14 Psychedelic
Skinny Boys/Skinny girls (remix) echoroom 01.26.14 Electronic
Long Way To Go (v2) PeterB7858 01.24.14 Acoustic
JAVA JIVE michaeljayklein 01.23.14 Easy Listening
Some kind of Sacrifice egobandit 01.23.14 Psychedelic
Acoustic Prayer Loob 01.23.14 Ballad
If I Only Had You, featuring David McNair grah3am 01.22.14 Rock
Shimmer paddler 01.20.14 Electropop
Doublin' Down on the Blues TommyBlueBoy 01.14.14 Blues (traditional)
Human, Being SmokeyVW 01.14.14 Experimental
Skinny Boys:Skinny Girls echoroom 01.12.14 Electronic
Already be there egobandit 01.11.14 Progressive Rock
Lost (Sammydix, Sigmund) rok41 01.11.14 Progressive Rock
DRIFTIN' 2 KCsGROOVE 01.11.14 Rock
EGGSHELL WALK w FRAN DAGOSTINO jiguma 01.09.14 Rock
New Start Narad 01.06.14 Inspirational (contemporary)
Silver Frame [with Fran 'ZITI' Dagostino] Alimar 01.05.14 Acoustic
Bosses And Slaves (with KC'sGroove) bingsolex 01.05.14 Rock
Dandelions Loob 01.05.14 Gospel
Space Out Skean 01.05.14 Experimental
Preacher 2nd mix w/bass yo! Charday 01.04.14 Blues (contemporary)
You Did Me No Wrong Bob Rodgers 01.04.14 Blues (contemporary)
mein kampf woofer3 01.04.14 Alternative Rock
Children's Favourites? (with Hackneybloke) DWL 01.04.14 Children's Music
Infinte Combo: Americka Outtaorbit 01.03.14 Alternative Rock
I'm Tired Of...! Vic Holman 01.03.14 Art Rock
Otitis Externa tadashi 01.03.14 Funk
The Indestructable Man wheelehouse 01.03.14 Indie Rock
Robotwerkz (B-side) LSP2 Garni 01.03.14 Electronic
moo 2 egobandit 01.02.14 Art Rock
What could go wrong? Philip18 01.02.14 Folk (contemporary)
The Off Switch mindscaper 01.01.14 Alternative Rock
Open Jam @ MacJams alackbass 01.01.14 Open Collaborations
Weather or not oldlibmike 01.01.14 Jazz (instrumental)
Sweet Lorraine (Vic Holman sitting in) Dadai.2 01.01.14 Folk-Rock
History of Mankind Skean 12.30.13 Experimental
Amazed By Who You Are Loob 12.29.13 Acoustic Rock
isyouisorisyouaintmybaby? michaeljayklein 12.29.13 Swing
Once upon a time alley-oop 12.28.13 Acoustic
radio dj blues bingsolex 12.28.13 Blues (contemporary)
Heart is Frozen w/Lokka Garni 12.27.13 Pop (Alternative)
Jacob Outtaorbit 12.26.13 Blues (contemporary)
Slumberlord grid stalker 12.26.13 Progressive Rock
Cathedral XVII Narad 12.26.13 Ambient
Two Songs for Christmas michaeljayklein 12.24.13 Holiday
Soft Crash Xmas Daugrin 12.24.13 Experimental
Dollar Store Christmas w/ Jerry Rissew crissew 12.23.13 Holiday
12 Days of MacJams (alternate mix) alackbass 12.23.13 A Cappella
Distraction oldlibmike 12.22.13 Jazz (instrumental)
Pastorale-Corelli MidiOrleans 12.22.13 Baroque
BAD CASE OF LOVE KCsGROOVE 12.22.13 Rock & Roll
3 days before christmas bingsolex 12.22.13 Rock
Go Away w/Lokka Garni 12.21.13 Pop (Alternative)
Hey Preacher remix w/drums/lead... Charday 12.21.13 Rock
Have a COOL YULE michaeljayklein 12.19.13 Holiday
Red Is The Rose thetiler 12.19.13 Folk (traditional)
God Rest Ye Merry, Gentlemen (take 5) TobinMueller 12.19.13 Holiday
O Christmas Tree (w/lilmom) rok41 12.19.13 Holiday
Christmas march II Narad 12.19.13 Inspirational (contemporary)
Lone Rider ihussain 12.21.13 Other
Hold On speedonl 12.18.13 Alternative Rock
no smoke SuperStarSmith 12.17.13 Punk-Grunge
The Cartoon Animator LSP2 Doug Somers 12.17.13 Comedy-Satire-Parody
bloodshot SuperStarSmith 12.16.13 Punk-Grunge
Winter Light paul f. page 12.16.13 Cinematic Soundtrack
Tension (with Vic Holman) MarkHolbrook 12.15.13 Rock
Miles on the Serengeti (LSP2) oldlibmike 12.14.13 Jazz Fusion
It's dark (try to see the light) Skean 12.14.13 Electronic
Sealor egobandit 12.13.13 Psychedelic
That 70's Tele stratcat 12.13.13 Rock & Roll
Moravian Star oldlibmike 12.11.13 Holiday
None VicDiesel 12.10.13 Inspirational (contemporary)
Stepping over Shadows jobu 12.09.13 Rock
A Moment With You - LSP2 The_Applesauce_Project 12.09.13 Pop (Alternative)
Day of Light (LSP2) particledots 12.08.13 Ambient
If I Only Had You grah3am 12.08.13 Pop (Alternative)
Our Love - LSP2 MarkHolbrook 12.08.13 Rock
Molly LSP2 bud 12.06.13 Dance-Club
Badge of Lies-LSP2 Vic Holman 12.06.13 Rock
Laura (LSP2) sammydix 12.06.13 Folk-Rock
Tarnished Diamond LSP2 peacepiano 12.06.13 Rock
City of Light LSP2(Bud/Outtaorbit Mix) davisamerica 12.06.13 Rock
Cheap Tricks (LSP2) sschedra 12.06.13 Rock & Roll
Ammirazione LSP2 Doug Somers 12.05.13 Twentieth Century
Two Part Invention in A Minor (LSP2) SmokeyVW 12.05.13 Electronic
LSP2: La Casa Ruidosa (Segue Into the Void) Ren-Tin-10 12.05.13 Progressive Rock
On The Mountain Bob Rodgers 12.02.13 Alternative Rock
Metal Surfin sammydix 10.12.13 Rock & Roll
Hopper's Got Dance 1rwhite1 10.10.13 NUjazz
The Clock Struck Midnight Moonwolf_Project 10.07.13 Blues (contemporary)
Ornamental Featherweight echoroom 10.06.13 Acoustic Rock
Lone Wolf Man groovehounds 10.04.13 Rock
Beautiful Day PeterB7858 10.01.13 Acoustic
Jump Right In jiguma 10.01.13 Acoustic Rock
IN THE EYE OF A STORM KCsGROOVE 10.01.13 Rock
Train of industrial delight Narad 09.29.13 Ambient
The Bell Train Narad 09.29.13 Ambient
Century train Narad 09.27.13 Ambient
I'm Dreaming groovehounds 09.26.13 Jazz (vocal)
Serenade XCCV Narad 09.23.13 Classical
I Don't Wanna' groovehounds 09.20.13 Pop (Alternative)
Rockin' Big Sister Daugrin 09.19.13 Rock & Roll
Say (Spitlogic/Davis2 mix) davisamerica 09.19.13 Psychedelic
Hey Johnny (Big Band version) PeterB7858 09.17.13 Rock
Photographic sammydix 09.17.13 Acoustic Rock
Life's a Trip with rok41 FEEL 09.15.13 Rock
Trouble Bob Rodgers 09.15.13 Acoustic Rock
Today's Far Too Long lavalamp 09.15.13 Alternative Rock
Guitar Improv 9-14-13 bud 09.14.13 Alternative Rock
The COFFEE SONG michaeljayklein 09.14.13 Easy Listening
Slomo Skean 09.14.13 Ambient
Burn Out the Lights groovehounds 09.14.13 Blues (contemporary)
waste some time egobandit 09.13.13 Art Rock
Hey Johnny (One Hour Challenge) PeterB7858 09.12.13 Acoustic
Coming Home ShadowofNine 09.11.13 Art Rock
Debbie's Wind Llarion 09.10.13 Smooth Jazz
It's All Good alackbass 09.08.13 Blues (traditional)
Keep the Funk groovehounds 09.07.13 Funk
Syria II Narad 09.07.13 Ethnic-International
cleared up egobandit 09.06.13 Open Collaborations
Hey... Soundhound 08.31.13 Rhythm and Blues
BAD PLUMBING BLUES (w Grathy) KCsGROOVE 08.27.13 Blues (contemporary)
Song of the Morning (with Franciscus Henri) Philip18 08.26.13 Acoustic
Long Way To Go PeterB7858 08.14.13 Acoustic
Say No More Vic Holman 08.10.13 Alternative Rock
A DAY IN JULY KCsGROOVE 08.08.13 Rock
Doxey Fields grah3am 08.08.13 Reggae
Swimming in the Circuits /carbon Les_Kloo 08.05.13 Progressive Rock
Your Pride w/Sasha Garni 08.05.13 Pop (Alternative)
THE DECIDERS Bowman 08.03.13 Classical
WHAT CAN I SAY KCsGROOVE 07.30.13 Funk
Samba Del Sur (with Rok41) Philip18 07.26.13 Latin Jazz
FUNK ON WHEELS KCsGROOVE 07.23.13 Funk
In The Circle Skean 07.14.13 Electronic
Desert Wails ft CharlyDeeCynthius Garni 06.27.13 Rock (instrumental)
OUT HERE AND STRANDED - featuring Mandy Siegel jiguma 06.22.13 Rhythm and Blues
Soul Party/ Live from the Digital Ghetto Daugrin 06.21.13 Soul
Soul Party/ Live from the Digital Ghetto Daugrin 06.21.13 Soul
Where Has it Gone by Jerry Quinn w/ Ryan, Jeff, ktb & Loob alackbass 06.20.13 Blues (contemporary)
In My Deepest Thoughts Skean 06.18.13 Experimental
piece it together egobandit 06.15.13 Rock
Sailor's Warning w jiguma, Philip18 PeterB7858 06.15.13 Rock
Wave Goodbye magnatone 06.12.13 Piano
INTO THE BLUE jiguma 06.12.13 Acoustic Rock
Lacy / w davisamerica, awigze, Sisters & rok41 davisamerica2 06.11.13 Ballad
Infinite Combo: Sunshine Outtaorbit 06.11.13 Alternative Rock
Close to the Bone by Jerry Quinn alackbass 06.10.13 Rock & Roll
Manic Pixie Dream Girl The_Applesauce_Project 06.10.13 Pop (Alternative)
Counting on a egobandit 06.09.13 Psychedelic
They Must Vic Holman 06.09.13 Alternative Rock
Dignity TobinMueller 06.09.13 Blues (contemporary)
My Funny Valentine (with Lilmom) Moviz 06.08.13 Ballad
Afraid of the Rain w/ Davisamerica awigze 06.06.13 Ambient
KIRA I b0rn2w0rsh1p 06.06.13 Acoustic
Under The Weather Loob 06.06.13 Country-Western
You Can't Touch Me (MJCC2013) mr_mordenus 06.05.13 Showtunes
The Wish Granter Symphony101 06.05.13 Progressive Rock
Rivet MikeHuntingford 06.05.13 Experimental
Intoxicated Silence (The Rapscallions) feat. Chief Thunder Bear Cheese Pantz 06.04.13 Rock & Roll
She Was Nowhere five_extra_arms 06.04.13 Electronic
Hong Kong Gem Chase (The Soundtrack) w/Retrotrend Garni 06.03.13 Pop (Alternative)
no title jottdee 06.02.13 Pop Classical
One Little Voice grah3am 06.02.13 Rock
There You Are MikeHuntingford 06.02.13 Easy Listening
Coming Home (MJCC2013) Philip18 06.02.13 Acoustic
Other Mutha Brother's Reggae Daugrin 06.01.13 Reggae
Groove (MJCC2013) peacepiano 05.31.13 Jazz (instrumental)
Groove (MJCC2013) peacepiano 05.31.13 Jazz (instrumental)
Caroline Knows by michael2 (MJCC2013) w/ rok41 & The Kiddoze alackbass 05.31.13 Acoustic Rock
Freedom Rings (MJCC2013) FEEL 05.31.13 Rock
Find Yourself (MJCC2013) MarkHolbrook 05.31.13 Acoustic Rock
I'll Always Love You (MJCC2013) Moviz 05.31.13 Ballad
Reflection Skean 05.31.13 Electronic
Hey, Cool Water (MJCC2013) PeterB7858 05.30.13 Acoustic
Sunset pablatone 05.29.13 Folk-Rock
Nylons and Harp Dadai.2 05.27.13 Acoustic
I Had a Dream (with thetau) Moviz 05.27.13 Folk (traditional)
When Loving Is One-sided, Music by Bob Rodgers Char 05.27.13 Ballad
time to time egobandit 05.24.13 Psychedelic
Break Me Garni 05.23.13 Pop (Alternative)
Asian Mystery Skean 05.22.13 Ethnic-International
'Unusual Times' TvRicky 05.21.13 Jazz Fusion
Maybe Next Year Loob 05.21.13 Pop (mainstream)
The world bingsolex 05.21.13 Blues (contemporary)
Anniversary jgurner 05.20.13 Pop (Alternative)
Autumn Falling PeterB7858 05.19.13 Acoustic
Sweet Isolation echoroom 05.19.13 Alternative Rock
Shine Your Light Moviz 05.18.13 Pop (Alternative)
The Embrace w/LisaHawbaker Garni 05.18.13 Inspirational (contemporary)
Darkest Skies Vic Holman 05.17.13 Art Rock
RUOK SmokeyVW 05.15.13 Other
the battle goes on that80sboy 05.15.13 Pop (Alternative)
Weak by Speakeasy Sway Gaylen75 05.14.13 Rock
ditto bud 05.13.13 Experimental
RADIANT FLESH (take 2) Bowman 05.12.13 Cinematic Soundtrack
Psycho J_Gretch 05.11.13 Rock
Morning glow tadashi 05.11.13 Jazz Fusion
no illusions egobandit 05.10.13 Alternative Rock
Train of industrial delight II Narad 05.10.13 Electronic
Tuesday paul f. page 05.10.13 Piano
Not For The Likes of You DWL 05.10.13 Folk-Rock
Dead Roads MartynAndrewPRice 05.15.13 Alternative Rock
Maybe You Will (new drums)/w Gadzooks, adf, Susan, Glenn, and Pete Loob 05.08.13 Funk
Blues for me bingsolex 05.08.13 Blues (contemporary)
The Sea Char 05.07.13 Folk (contemporary)
Bro .. with A-man and gadzooks lyzak 05.05.13 Alternative Rock
Monet's Garden (new) Moviz 05.05.13 Ballad
Close to Midnight w/ alackbass, rok41, paul f. page, & KyasheMusic Philip18 05.03.13 Acoustic
I DON'T LIKE IT KCsGROOVE 05.03.13 Rock
Anyway apb 05.02.13 Pop (Alternative)
Ride Yer Bike Daugrin 05.02.13 Jazz Fusion
I Want Emoticon FEEL 05.01.13 Rock
I Can /w adf, Paulo, Ken, & Don Loob 04.30.13 Pop (mainstream)
Amy Go Away J_Gretch 04.29.13 Rock
Ethnic Train Narad 04.29.13 Twentieth Century
We Can't Let It Go Bob Rodgers 04.28.13 Country-Western
Syzygy One sammydix 04.27.13 Ambient
The Long Way (w/ Saltaireguru77) PeterB7858 04.25.13 Rhythm and Blues
'Saturday Jam Sessions' Evolution On The One TvRicky 04.24.13 Jazz (instrumental)
Decisions paul f. page 04.24.13 Piano
Frozen Man (by James Taylor) TobinMueller 04.23.13 Ballad
The Sound v2 Garni 04.21.13 Pop (Alternative)
Someone Is Jealous Of You Vic Holman 04.21.13 Alternative Rock
Wandering Blues johnwhitehead 04.21.13 Bluegrass
Texas Sunset VicDiesel 04.21.13 Trip Hop
Autumn Leaves are Calling Franciscus_Henri 04.20.13 Acoustic Rock
Beat Dancing Loob 04.20.13 Funk
The Bender lyzak 04.20.13 Country-Western
say it aint so egobandit 04.19.13 Psychedelic
violins and guitars bingsolex 04.19.13 Romantic
Moonglow (with Lilmom) Moviz 04.18.13 Ballad
Tell me more saSHguitAR 04.18.13 Acoustic
Birdland Part 1 (Arrangement Exercise Cover) DrToasty 04.18.13 Jazz Fusion
SUSTAIN w/Michael2 bud 04.17.13 Alternative Rock
out of nothing egobandit 04.17.13 Art Rock
Home kingbee 04.16.13 Pop (Alternative)
No Way Bob Rodgers 04.15.13 Acoustic Rock
Cosmic Conjection Garni 04.15.13 Pop (Alternative)
News Is Gonna Break jiguma 04.15.13 Reggae
Just Another Day Leon 04.14.13 Pop (Alternative)
Café Orléans MidiOrleans 04.14.13 NUjazz
The Steppes of Mt. Umunhum paul f. page 04.14.13 Classical
Muddy Fields/ w DWL & rmarris davisamerica2 04.14.13 Acoustic Rock
Whatever... stevel 04.14.13 Alternative Rock
Suborbital Cocktails oldlibmike 04.14.13 Electronic
Room FEEL 04.14.13 Rock
OUT OF THE RAIN KCsGROOVE 04.14.13 Rock
Escapade pole 04.14.13 Alternative Rock
QAUG DAB PEG particledots 04.14.13 Cinematic Soundtrack
Lonely Generation Symphony101 04.14.13 Alternative Rock
Two Chord Metronome Groove MikeHuntingford 04.14.13 Rhythm and Blues
The Rush(in) with guitar! (The Rapscallions) Cheese Pantz 04.13.13 Rock (instrumental)
H7N9 SmokeyVW 04.13.13 Electronic
all the time egobandit 04.13.13 Alternative Rock
Gates Of Heaven mystrag 04.13.13 Rock (instrumental)
mellow - A7 4.8.13d airportseven 04.12.13 Ambient
Uncast the Pebble oldlibmike 04.12.13 Psychedelic
Mama Told Me jie 04.12.13 Rock
Sheep Bacon Daugrin 04.11.13 Dance-Club
Champs Elysees. Moviz 04.11.13 Jazz (vocal)
Caledonia richard13 04.11.13 Cinematic Soundtrack
Old Man Mose is Dead michaeljayklein 04.11.13 Inspirational (contemporary)
A Funky Little Thing lavalamp 04.10.13 Alternative Rock
LO FREQ /Particledots bud 04.10.13 Experimental
Alone (reboot) Doadars Uncle 04.10.13 Rock
The Real Me w/Sandra Garni 04.10.13 Pop (Alternative)
F**K It w egodays, Mike, John, and Don Loob 04.09.13 Heavy Metal
Dream Weave WharmtonRise 04.09.13 Cinematic Soundtrack
Back to Saturn Narad 04.08.13 Progressive Rock
Morning Watch PeterB7858 04.08.13 Fingerstyle Guitar
The Beach glennkav 04.07.13 Rock
Little Blue L200 Lennon714 04.07.13 Rock & Roll
LIB (demo) doc_elvis 04.07.13 Alternative Rock
No Fun Anymore (Macjams is dead) Skean 04.06.13 Comedy-Satire-Parody
yucatec tokai 04.05.13 Art Rock
The Queen of 94 PHBB 04.03.13 Country-Western
God Whose Giving Knows No Ending eleveneyes 04.01.13 Gospel
Train on fire Narad 03.31.13 Ambient
Chains of Change Vic Holman 03.30.13 Acoustic Rock
Never To Grow Old Dadai.2 03.30.13 Acoustic
ebb n flow egobandit 03.30.13 Art Rock
duality bud 03.29.13 Other
Adrift On The Tide PeterB7858 03.28.13 Acoustic
Love is Blind Moviz 03.28.13 Pop (Alternative)
03262013 aka Piano and string quartet attempt SCJohnson59 03.26.13 Classical
Apollo Narad 03.26.13 Electronic
When You Fall In Love.. With/ Patricia Edwards Soundhound 03.26.13 Dance-Club
Blue (Mix 1) XMaramena 03.25.13 Trance
Dusty Old Spirits (Remake) Doadars Uncle 03.25.13 Ballad
Rasta Never Sleeps oldlibmike 03.25.13 Reggae
Going Home - w/ Vic Holman Symphony101 03.25.13 Alternative Rock
A7 1.15.13 airportseven 03.24.13 Psychedelic
birders particledots 03.24.13 Other
Time jottdee 03.24.13 Electronic
Bag of Figs oldlibmike 03.24.13 Jazz (instrumental)
I Never Knew You w/Ramonaji Garni 03.23.13 Inspirational (contemporary)
let up egobandit 03.23.13 Art Rock
The Game rok41 03.23.13 Rock
Goodbye Skean 03.23.13 Electronic
Last Hot Summertime Daugrin 03.23.13 Easy Listening
Dark Waters w/scofugate, ktb, Pickquickrecords, Ren-Tin-10 awigze 03.23.13 Piano
Valarty & AJ Craft - Burn (Alternative version) craft 03.22.13 House
Rise Einarus 03.21.13 Cinematic Soundtrack
Celtic Suite richard13 03.21.13 Classical
Sorry from Requiem Mass - Final Recording christopherpsly 03.18.13 Classical
Roll with it Feter 03.18.13 Open Collaborations
03172013 aka St Patty's Day Jazz 90 bpm SCJohnson59 03.17.13 Open Collaborations
Fly ! Narad 03.17.13 Electronic
The Time of Morris Men Again with Kingbee, Moviz, Bob Rodgers and Stevel, DWL 03.17.13 Folk (traditional)
Lightforce eftosrx 03.17.13 Trance
Borealis Narad 03.17.13 Electronic
THE KING'S MEN Bowman 03.17.13 Cinematic Soundtrack
Why am I? kingkenny 03.16.13 Alternative Rock
Seventy paul f. page 03.15.13 Piano
Under Your Bed - feat. strangedream, rok41 & Steve Ritter Sigmund 03.15.13 Rock
Right For Me (Carries Song) Gaylen75 03.15.13 Acoustic Rock
To The Stars (with Rok41) Philip18 03.15.13 Acoustic
Sunless Sun - 2013 Chris Boros 03.15.13 Progressive Rock
Humanity in Disguise (Dubstep Mix) Garni 03.15.13 Industrial
More Cream In My Coffee chestnut 03.15.13 Folk (contemporary)
Just Ain't Worth a Song (2 Track) alackbass 03.14.13 Blues (contemporary)
Ode To A Dusty Road 867-5309 03.14.13 Piano
Can't Explain Vic Holman 03.13.13 Rock
Time to time egobandit 03.13.13 Psychedelic
burning hitler woofer3 03.13.13 Acoustic
Spill The Grain/Grain House Drag Daugrin 03.13.13 Experimental
Serenade CLXXIII Narad 03.13.13 Classical
What Do You Say w Sisters Loob 03.12.13 Jazz (vocal)
Slide Away stevel 03.12.13 Alternative Rock
Fifty Fathoms Deep PeterB7858 03.12.13 Jazz (vocal)
Telecasters A Go-Go stratcat 03.12.13 Country-Western
War Child ShadowofNine 03.11.13 Inspirational (contemporary)
Infinite Combo: Train Wreck Outtaorbit 03.11.13 Jazz Fusion
Papa Part III (live instrumental from 1968) Dadai.2 03.09.13 Soul
I Saw Your Picture Today awigze 03.09.13 Ballad
RESONANCE w/Symphony 101 bud 03.09.13 Electronic
Tiger Track Narad 03.09.13 Ambient
A Lawless One Gaylen75 03.08.13 Acoustic Rock
vacuums and vampires egobandit 03.08.13 Open Collaborations
Summer and Winter with Anne Cozean Proliferous_Rose 03.08.13 Pop (mainstream)
Firestorm Parichayaka 03.07.13 Cinematic Soundtrack
Green Machine five_extra_arms 03.07.13 Electronic
Addiction w/Stephanie Garni 03.07.13 Pop (Alternative)
Graveyard JasonGoodman 03.06.13 Folk (contemporary)
Hungover (Boss , Production by Toast) Dj French Toast 03.06.13 Hip Hop-Rap
Play The Player MJReunionNAR 03.06.13 Pop (mainstream)
01-15-13 Not sure where it's taking me. mvh9591 03.05.13 Soft Rock-Adult Contemporary
01-15-13 mvh9591 03.05.13 Soft Rock-Adult Contemporary
Evening Calm Narad 03.05.13 Ambient
The Movies Skean 03.04.13 Cinematic Soundtrack
Nobody's Fault But Mine w/ Sigmund pablatone 03.04.13 Blues (traditional)
SugarBubbleWater Les_Kloo 03.03.13 Progressive Rock
Someone Else's Thing Relic67 03.03.13 Rock
Blount VicDiesel 03.02.13 Native American
Nine Long Days Bob Rodgers 03.02.13 Blues (contemporary)
Love Shack Warren Smith 03.02.13 Alternative Rock
SPRINGFEVER KCsGROOVE 03.02.13 Blues (contemporary)
PULSE w/Sisters bud 03.01.13 Other
Chasing After Sprites richard13 03.01.13 Electronic
Hold On Moviz 03.01.13 Pop (Alternative)
12 davisamerica 02.28.13 Art Rock
Northern Light (Piano Cover) CrazeeFlootGrrl 02.28.13 Ballad
The Rush(in) -demo (The Rapscallions) Cheese Pantz 02.28.13 Rock (instrumental)
Play The Player MJReunionNAR 02.27.13 Pop (mainstream)
Otnemem/Heal echoroom 02.27.13 Alternative Rock
ARPEGGIATE SmokeyVW 02.27.13 Electronic
Desert GermanGhost 02.26.13 Indie Rock
Imagined Flight (w/ alackbass, The Composer, and Robert Betrus) Tiny_Man_Inside 02.26.13 Rock
Porcelain Mannequins w/Monroe Garni 02.25.13 Pop (Alternative)
blunder along egobandit 02.24.13 Art Rock
Never the twain VicDiesel 02.23.13 Ethnic-International
The Moleman Cometh spitlogic 02.23.13 Hip Hop-Rap
The Best Day FrankAxtell 02.22.13 Progressive Rock
Korg...MicroSampler.... Soundhound 02.21.13 Experimental
Chasing Ambulances PaddyNavinCaryatid 02.21.13 Alternative Rock
iAm (FEEL & apb) FEEL 02.20.13 Alternative Rock
charlie built a rocket that80sboy 02.19.13 Electropop
My Solitude ShadowofNine 02.18.13 New Age
Fading In the Dark (using the alackbass tune "Orphan Changes") Philip18 02.16.13 Acoustic
Mirror Mirror Vic Holman 02.15.13 Art Rock
10 Days of Rain by Deb Carlson johnwhitehead 02.13.13 Jazz (vocal)
Slab City DWL 02.12.13 Alternative Rock
Uncharted Waters PeterB7858 02.12.13 Acoustic
WHERE I BELONG KCsGROOVE 02.11.13 Rock
Orphan Changes alackbass 02.10.13 Open Collaborations
Doors (W/Spitlogic) Skean 02.10.13 Hip Hop-Rap
Friends Moviz 02.10.13 Rhythm and Blues
We Can Dance (with Gadzooks & Loob) Philip18 02.08.13 Pop (mainstream)
ALL FALL DOWN jiguma 02.08.13 Acoustic Rock
The Rest FEEL 02.07.13 Rock
Past:Present kingbee 02.07.13 Acoustic
Opaline (Muterra) Cheese Pantz 02.06.13 Alternative Rock
World_Jazz_Improv Loob 02.06.13 Jazz (instrumental)
ballad-Miguel's trio jordifiol 02.04.13 Rock (instrumental)
ICARUS KCsGROOVE 02.03.13 Rock
Mind Uploaded (RPM 2) perceptualvortex 02.03.13 Art Rock
'Let's Talk'-'Master Disciple Collection'-'Evolution On The One' TvRicky 02.03.13 Jazz Fusion
Shades of Grey VicDiesel 02.02.13 Downtempo
allot about egobandit 02.01.13 Alternative Rock
Attack of the Media musichead 02.01.13 Lo-fi
There and Back richard13 02.01.13 Experimental
Shells in the Tide KyasheMusic 01.31.13 Jazz (instrumental)
Doors.. Soundhound 01.31.13 Hip Hop-Rap
Don't Need You w/Stephanie Garni 01.31.13 Ballad
a curious series of events airportseven 01.29.13 Other
The Midnight Ride kawase 02.03.13 Rock (instrumental)
ER ZIJN ZO VAN DIE DAGEN KCsGROOVE 01.28.13 Rock
It's My Dream FEEL 01.27.13 Rock
Runnin' Out of Road johnwhitehead 01.27.13 Acoustic
Perfect Storm w crissew//Symphony101/Awigze/Vic Holman Charday 01.27.13 Rock
Fernando Poo and Taj's Heliopolis (The Collector's Edition) FriendshipBrigade 01.26.13 Alternative Rock
A Minor Inconvenience Swing Jarvoid 01.26.13 Jazz (instrumental)
Kool Daddy Free/Sax Mr. Fab Daugrin 01.26.13 Jazz Fusion
Search Of Euphoria Vic Holman 01.25.13 Rock
Ice Wind Skean 01.25.13 Ambient
Love Relic67 01.25.13 Folk (contemporary)
San Antonio Nights (with Rok41) Philip18 01.23.13 Latin Jazz
Wonder If TommyBlueBoy 01.22.13 Folk (contemporary)
TOO MUCH OF EVERYTHING KCsGROOVE 01.22.13 Rock
night city jottdee 01.21.13 Smooth Jazz
I'm Feeling Stronger Moviz 01.20.13 Pop (Alternative)
Waiting By the Clearance Rack (At Ann Taylor Loft) alackbass 01.19.13 Country-Western
The Third Candle VicDiesel 01.19.13 Inspirational (contemporary)
WildBird lyzak 01.19.13 Acoustic
head on egobandit 01.18.13 Hard Rock
Everybody Cries jiguma 01.18.13 Acoustic Rock
'Miles In A Minute'-'Evolution On The One' CD TvRicky 01.18.13 Jazz Fusion
Weather with Emily Rohm and Steve Cole FEEL 01.18.13 Rock
Why Do I Remember? / With DWL & Davisamerica davisamerica2 01.17.13 Country-Western
Interstellar Alpha 1 ShadowofNine 01.16.13 Ambient
Lazy Groove Outtaorbit 01.15.13 Ambient
DANCING WITH MY BABY KCsGROOVE 01.15.13 Inspirational (contemporary)
Collab Mr. Departure Daugrin 01.13.13 Jazz Fusion
I'll Just Sing Another Song Dadai.2 01.12.13 Rock & Roll
its gonna float egobandit 01.11.13 Electronic
Snow Train Narad 01.11.13 Ambient
We All That! w/ Scofugate and TvRicky awigze 01.10.13 NUjazz
Still be Friends speedonl 01.10.13 Rock
One More Friend Philip18 01.10.13 Acoustic
One More Friend Philip18 01.10.13 Acoustic
Coming Home To You w/Cuddabrown Garni 01.08.13 Pop (mainstream)
melancholy baby bud 01.08.13 Electronic
They Don't Lie Les_Kloo 01.08.13 Progressive Rock
All Of Me......... Jarvoid 01.07.13 Jazz (instrumental)
Lady Bluebird Bob Rodgers 01.06.13 Acoustic
LongBranch johnnyblues 01.06.13 Electronic
Did You Find Sanctuary? perceptualvortex 01.06.13 Art Rock
Mr. Departure Daugrin 01.05.13 Jazz Fusion
Suspense Narad 01.05.13 Film Scoring
Out Here and Stranded jiguma 01.04.13 Rhythm and Blues
History Repeats Vic Holman 01.04.13 Alternative Rock
boiled egobandit 01.04.13 Other
play that (with Mori collaboration) tadashi 01.04.13 Jazz (instrumental)
Love Me Like You Used To TommyBlueBoy 01.03.13 Country-Western
Astral Traveling richard13 01.03.13 Electronic
ALL IN THE GAME KCsGROOVE 01.02.13 Funk
Rain Your Grace on Me (Joy of Grace) Lardo 01.02.13 Inspirational (contemporary)
Back...Look Way Back ShadowofNine 01.01.13 Rock & Roll
Katherine Nodded particledots 01.01.13 Other
Night Train (Manhattan Bound) aRcTip 01.01.13 Electronic
Almost There AbstractVision 01.01.13 Pop (Alternative)
12.31.12 Corporal Beef 12.31.12 Electronic
Out With the Old, In With the New alackbass 12.31.12 Jazz (vocal)
Doors with spitlogic bud 12.31.12 Hip Hop-Rap
Svartalfpolska Six-Nail-Coffin 12.31.12 Ethnic-International
Speak Softly with Lisa H Garni 12.31.12 Gothic Rock
Return From the Fray w Damien,A.Gentle, L.Gold,Graeme, kingbee,Macferret,R Marris,Moviz,Bob Rogers DWL 12.30.12 Folk-Rock
Blew Luv w/ crissew/Jeff Cook Charday 01.07.13 Soft Rock-Adult Contemporary
Funky Funny Bunnies Skweryl 12.30.12 Progressive Rock
As Soon As" abzwork 12.30.12 Jazz Fusion
Sex tet peacepiano 12.29.12 Pop Classical
And soon Skean 12.29.12 Holiday
A Bell In The Valley sonnyjim 12.28.12 Holiday
Greensleeves kassia 12.28.12 Holiday
'The Snakes Time' Evolution On The One TvRicky 12.28.12 Jazz Fusion
now its the time egobandit 12.27.12 Progressive Rock
Storm on Saturn Narad 12.27.12 Ambient
The Stoning djdrshaman 12.27.12 Ethnic-International
TWO Bowman 12.27.12 Classical
Don't Change Your Mind jobu 12.27.12 Other
Life After Life grid stalker 12.26.12 Psychedelic
Anneliese Jarvoid 12.26.12 Folk (traditional)
The Legend Of The Swift Arrow w/ Vic Holman, ShadowOfNine Symphony101 12.26.12 Progressive Rock
Someone Else's Blues alackbass 12.24.12 Rock
Alone at Christmas PaulaMunk 12.24.12 A Cappella
Someone Else's Blues alackbass 12.24.12 Rock
Hanswurst's Circus Date Daugrin 12.24.12 Experimental
Christmas march Narad 12.23.12 Classical
Holiday Doors indigoblu 12.22.12 Holiday
Evening Prayer-Hänsel & Gretel MidiOrleans 12.22.12 Classical
Deck The Halls Loob 12.22.12 Holiday
MERRY CHRISTMAS HAPPY NEW YEAR PETERCATHAM 12.22.12 Holiday
Fugue No. 1 JS Bach woofer3 12.22.12 Baroque
A Bell in the Valley 2012 (w/ vox) richard13 12.22.12 Holiday
God Rest Ye Merry, Gentlemen Philip18 12.21.12 Holiday
A belief in the angel Skean 12.21.12 Ambient
Happy Holidays(MJ Card) davisamerica 12.20.12 Holiday
brittle (DOOM2012) airportseven 12.20.12 Rock
Romeo Said Diego_B 12.20.12 Acoustic
Romeo Said Diego_B 12.20.12 Acoustic
Romeo Said Diego_B 12.20.12 Acoustic
O' Tannenbaum (w/SylviaD) rok41 12.20.12 Holiday
Beautiful Day FEEL 12.20.12 Holiday
A Tribute To the Sandy Hook Victims jfisenne 12.20.12 Classical
Santa Claus Narad 12.20.12 Holiday
Nu tändas tusen juleljus Cori Ander 12.20.12 Fingerstyle Guitar
They Grow and They Glow Reinholt56 12.19.12 Ambient
LIFE (Doom 2012) Bowman 12.19.12 Cinematic Soundtrack
1960's Under The Christmas Tree musichead 12.18.12 Holiday
West (w/awigze) - Doomsday Challenge yrp 12.18.12 Easy Listening
The Summer before the Dark (DOOM 2012) Henke 12.18.12 Alternative Rock
people get ready (doomsday challenge) egobandit 12.18.12 Art Rock
This Time It's Real stevel 12.18.12 Pop (Alternative)
Be a Window, a capella PaulaMunk 12.18.12 A Cappella
policy ste 12.18.12 Pop (Alternative)
Silent Night 2012 tadashi 12.18.12 Holiday
Let Beauty Awake djdrshaman 12.18.12 A Cappella
Some Thing In Hand xcessmusicgroup 12.18.12 Alternative Rock
Verbal Waltz SPITLOGIC & FMD (DJ - WestM remix) DJWestM 12.18.12 Hip Hop-Rap
Fallen SmokeyVW 12.17.12 Film Scoring
Guns n Amerika (Tiny Angels) rabittwhole 12.17.12 Ambient
Nebula (BAP150 Coursework) XMaramena 12.17.12 Dance-Club
Tiger Man 867-5309 12.17.12 Jazz (instrumental)
All I Want original Holiday song morgan102 12.17.12 Holiday
6981 Loob 12.17.12 Rock (instrumental)
My Own Little World Garni 12.17.12 Pop (Alternative)
Birdsong perceptualvortex 12.16.12 Art Rock
The Asteroid [Doom2012] Doug Somers 12.16.12 Cinematic Soundtrack
The Sun Path Narad 12.16.12 Ethnic-International
Distrans Reinholt56 12.16.12 Ambient
Quintessence Symphony101 12.15.12 New Age
Melancholera oldlibmike 12.15.12 Classical
The First Candle VicDiesel 12.15.12 Inspirational (contemporary)
Doomsday Challenge entry (Quintet for Piano and Strings) djdrshaman 12.15.12 Classical
Coriolis Flip [DOOM2012] Les_Kloo 12.15.12 Progressive Rock
Butterfly Year (Doom 2012) w/ Sisters, Maure and Billy awigze 12.15.12 Bluegrass
Thought Jscott 12.15.12 Open Collaborations
Solar flare hit us (DOOM2012) Skean 12.15.12 Cinematic Soundtrack
Lullaby for Newtown blamm 12.15.12 Alternative Rock
Judgement Day (Doom 2012) Vic Holman 12.14.12 Rock
advent (doom2012) ste 12.14.12 Pop (Alternative)
Remember the guest Mr Clean egobandit 12.14.12 Psychedelic
Baume Les Dames jiguma 12.14.12 Acoustic Rock
When the End Was Near (Doom2012) alackbass 12.14.12 Blues (contemporary)
Beer and Wings (Doom 2012) Evil_Genius 12.14.12 Cha-Cha
Pakaluni's Tiki Bar (DOOM2012) SmokeyVW 12.14.12 Other
The Doomsday Polka (DOOM2012) jgurner 12.14.12 Polka
B'ak'tun 13 (Doom2012) richard13 12.14.12 Cinematic Soundtrack
Walking in a Vintner Wonderland oldlibmike 12.13.12 Holiday
SANTA BABY michaeljayklein 12.13.12 Holiday
We Three Kings davajonah 12.12.12 Holiday
Intro #7 Loob 12.12.12 Film Scoring
Let up (Skean & egobandit) Skean 12.12.12 Ethnic-International
InfraUltra Les_Kloo 12.12.12 Progressive Rock
The Ice Is Blue PeterB7858 12.11.12 Blues (contemporary)
'Nabru S'reggin Portrait' 'Evolution On The One' TvRicky 12.11.12 Jazz Fusion
Do You Hear What I Hear? SylviaD 12.11.12 Holiday
For Christmas This Year Moviz 12.10.12 Holiday
Draggin It MikeHuntingford 12.18.12 Cinematic Soundtrack
Time To Come Home The_Applesauce_Project 12.18.12 Rock & Roll
I can Tell you Something Outtaorbit 12.09.12 Easy Listening
2012 [DOOM2012] Aemyn 12.09.12 Metal
A Dance For Frances. Fire_Angel 12.09.12 Piano
Nothing lavalamp 12.09.12 Rock
Nobody Knows You When You're Down And Out Philip18 12.09.12 Blues (traditional)
DUST IN THE WIND KCsGROOVE 12.08.12 Soft Rock-Adult Contemporary
Super Disco Breakin' (W/Beastie Boys) Skean 12.08.12 Hip Hop-Rap
When You Thought We Weren't Looking (remix) alackbass 12.08.12 Blues (contemporary)
Black Hole GermanGhost 12.07.12 Indie Rock
Coming Home Bob Rodgers 12.07.12 Acoustic Rock
You Tonight.... Soundhound 12.07.12 Downtempo
Amelia Hickling_Stan 12.06.12 Acoustic Rock
Here comes the cold egobandit 12.05.12 Art Rock
I Could Write a Book Ibstrat 12.02.12 Solo Instrument
NOVEMBER KCsGROOVE 12.02.12 Acoustic Rock
When You Thought We Weren't Looking alackbass 12.01.12 Blues (contemporary)
more (original version) carbon 12.01.12 Psychedelic
'Feel' 'Evolution On The One' TvRicky 11.30.12 Jazz Fusion
Driving To The Sun Vic Holman 11.30.12 Rock
Twinkle, Twinkle Little Star by Julia Grace Dadai.2 11.30.12 Children's Music
Too Long 12parsecs 11.30.12 Electropop
The Angel Sleigh Moviz 11.29.12 Holiday
It's All About Love Diego_B 11.29.12 Pop (Alternative)
it comes and it goes egobandit 11.28.12 Psychedelic
Londonderry Air with The Trio Jarvoid 11.28.12 Folk (traditional)
I'll Be Waiting For You xcessmusicgroup 11.28.12 Pop (mainstream)
The Saddest Little Song in the World tempie 11.28.12 Pop (Alternative)
I Promise Me wheelehouse 11.27.12 Indie Rock
RazorHed AllenDean 11.27.12 Hard Rock
Open Sore ****** (WITH FINKELDINK) sewer rod 11.27.12 Metal
Piano Dust Garni 11.26.12 Pop Classical
The Light Is Fading Loob 11.25.12 Folk (contemporary)
Askewed Warren Smith 11.24.12 Punk-Grunge
Starry Way Narad 11.24.12 Ambient
The King of 5th Avenue crazykeyman 11.23.12 Blues (contemporary)
Pendulum (An Armchair Ambient Mix) Reinholt56 11.23.12 Ambient
It's Your Move Skean 11.23.12 Cinematic Soundtrack
Little Boy Bob Rodgers 11.23.12 Ballad
Home gcjjones 11.22.12 Acoustic
disillusioned deviant egobandit 11.21.12 Art Rock
DEEP doc_elvis 11.21.12 Alternative Rock
Just A Closer Walk With Thee (new w/Roxylee) Dadai.2 11.20.12 Gospel
One Hundred Years from Today michaeljayklein 11.20.12 Easy Listening
Where Are You Hiding? lyzak 11.20.12 Open Collaborations
Hot Tamales and They're Red Hot..... Jarvoid 11.20.12 Blues (traditional)
Mechanical Diego_B 11.20.12 Acoustic Rock
Cabin Fever PeterB7858 11.20.12 Acoustic
Last Train stevel 11.19.12 Alternative Rock
..... mike_d 11.19.12 Heavy Metal
lost boy's dream tmcfate 11.19.12 Acoustic Rock
skull/Sir Bass tokai 11.17.12 Rock
And I'm a Kid Again richard13 11.17.12 Electronic
Changing Aemyn 11.17.12 Hard Rock
Who Would Have Guessed? paul f. page 11.17.12 Cinematic Soundtrack
Good Night pablatone 11.16.12 Acoustic
A Sound From A Letter Skean 11.16.12 Experimental
'Miles' In A Minute 'Evolution On The One' TvRicky 11.15.12 Jazz Fusion
Ricochet(w-Stan) J_Gretch 11.15.12 Acoustic Rock
night/Skean tokai 11.14.12 Other
Hi-Tops tempie 11.14.12 Indie Rock
The Cost Philip18 11.14.12 Acoustic
Milky Way Over a Starlit Lake Doug Somers 11.13.12 Ambient
At Dawn (with Symphony101) Mosaica 11.11.12 Classical
The Blaydon Races Jarvoid 11.10.12 Folk (traditional)
Tuned train Narad 11.10.12 Ambient
For Rose Fire_Angel 11.10.12 Piano
Infinite Combo:The Dirge Outtaorbit 11.09.12 Jazz (vocal)
mass egobandit 11.09.12 Electronic
Himalaya tempie 11.08.12 Pop (Alternative)
Siren Narad 11.08.12 Ambient
short egobandit 11.07.12 Art Rock
Bad Blood by The Speakeasy Sway Gaylen75 11.07.12 Alternative Rock
Walking On Air jottdee 11.06.12 Smooth Jazz
Formula One Motor Racing Narad 11.05.12 Experimental
Archaeology SmokeyVW 11.04.12 Experimental
To the Dump grah3am 11.04.12 Electronic
I Think I Give Up Skean 11.04.12 Electronic
dont do's egobandit 11.02.12 Art Rock
The End w/ strangedream & rok41 Sigmund 11.02.12 Pop (Alternative)
Silver Tongues and Golden Boys Vic Holman 11.02.12 Art Rock
The Edge PeterB7858 11.02.12 Acoustic
Blackberry's heart Narad 11.02.12 Ambient
Lucien's Cat by Skean and awigze awigze 11.01.12 Experimental
It's True Moviz 11.01.12 Pop (Alternative)
The Lady is a Tramp michaeljayklein 11.01.12 Swing
The Lady is a Tramp michaeljayklein 11.01.12 Swing
Underworld III (Halloween 2012) Narad 10.30.12 Cinematic Soundtrack
Emotional Distance( W/ Mr Sax) HALLOWEEN2012 Skean 10.28.12 Holiday
_'Whorror'_'Evolution On The One' TvRicky 10.27.12 Indie Rock
The Trader (Curtain Call- with Loob and egodays) finkeldink 10.25.12 Acoustic Rock
Catalina Sun (with Rok41) Philip18 10.25.12 Smooth Jazz
Disconnect Les_Kloo 10.24.12 Progressive Rock
It Was Always Love johnwhitehead 10.22.12 Acoustic
SUN CHASER Bowman 10.21.12 Cinematic Soundtrack
Smoke And Cracked Mirrors PeterB7858 10.21.12 Acoustic
Night train II Narad 10.20.12 Ambient
10192012 aka Each One's Life IsWonderful SCJohnson59 10.19.12 Open Collaborations
When Loving is One-sided, a capella PaulaMunk 10.18.12 Open Collaborations
Trailed in the Mud smokey bacon jnr 10.17.12 Alternative Rock
Our Father jottdee 10.17.12 Smooth Jazz
Serenade CLIII Narad 10.17.12 Classical
Human Light FEEL/DarkPlanet/Lester Long FEEL 10.15.12 Progressive Rock
Time heals all wounds XV Narad 10.15.12 Classical
Los Bilbilicos feat Javier Palacios VicDiesel 10.14.12 Renaissance
NO NEWS BLUES KCsGROOVE 10.14.12 Rock
Old Ned Jarvoid 10.13.12 Acoustic
let up egobandit 10.13.12 Psychedelic
Burning DWL 10.12.12 Psychedelic
The train of fate Narad 10.11.12 Ambient
Traveler's Blues Philip18 10.10.12 Blues (contemporary)
Pick Your Battles w egodays & finkledink Loob 10.09.12 Rock & Roll
Contradiction:Ordinary sammydix 10.08.12 Art Rock
FORTH Narad 10.08.12 Ambient
GLOWING IN THE DARK (2012 REMIX) CIASM_ZENABI_ 10.08.12 Latin Pop
Champagne Cinderella ( lyrics by Damroze) Moviz 10.07.12 Art Rock
Ship of Fools Daugrin 10.07.12 Experimental
TROUBLED TIMES KCsGROOVE 10.07.12 Rock
She Walks Vic Holman 10.06.12 Alternative Rock
Sociably unexcepted egobandit 10.05.12 Industrial
Homeless musichead 10.05.12 Rock
See You in Hell J_Gretch 10.01.12 Rock
Until You Join Me There alackbass 09.29.12 Acoustic
How Did We Let This Happen? (with Songwriterz) Philip18 09.28.12 Soft Rock-Adult Contemporary
beautiful surprise egobandit 09.28.12 Psychedelic
Then There Were Four (with Scofugate) Moviz 09.28.12 Art Rock
Then There Were Four (with Scofugate) Moviz 09.28.12 Art Rock
Days Not Realized Slashh! 09.28.12 Acoustic
Insolence and Wine (Don't Make Me Run)/kindafishy sammydix 09.26.12 Rock
Leaving Narad 09.26.12 Ambient
I WANT YOU OUT (OF MY HEAD) KCsGROOVE 09.24.12 Jazz (vocal)
A Fool Upon The Stage PeterB7858 09.22.12 Acoustic
Grace (Sisters/VicHolman/awigze mix) davisamerica 09.22.12 Art Rock
Stars Skean 09.22.12 Ambient
Find Your Way Bob Rodgers 09.22.12 Acoustic
My Life in a flea market egobandit 09.21.12 Alternative Rock
Scream the Sky Les_Kloo 09.20.12 Progressive Rock
Meditation #1 kassia 09.20.12 New Age
Legend paul f. page 09.17.12 Classical
These are not tears (scratch vocals) DavidConnell 09.17.12 Alternative Rock
A Lame Tame Crane alackbass 09.16.12 Children's Music
I Found Love Moviz 09.16.12 Latin Pop
Curtains of Curiosity Vic Holman 09.15.12 Acoustic Rock
The Summit ShadowofNine 09.15.12 Cinematic Soundtrack
You lyzak 09.15.12 Open Collaborations
The Road Home Philip18 09.14.12 Acoustic
Where I Belong PeterB7858 09.14.12 Acoustic
The next Wave egobandit 09.07.12 Alternative Rock
G-song KCsGROOVE 09.07.12 Rock
'Tader Heads/ Sax Mr. Fab/ Program Skean Daugrin 09.06.12 Jazz Fusion
Stranger Then Myself Vic Holman 09.04.12 Alternative Rock
Peace in a Stressful World Skean 09.04.12 Electronic
Architecting Strange Words /sammydix Les_Kloo 09.03.12 Progressive Rock
Comfort and Joy/Magnatone/Gadzooks sammydix 09.03.12 Jazz (vocal)
Time Passes PeterB7858 09.03.12 Ambient
Ashamed to be White alackbass 09.03.12 Alternative Rock
And Then Autumn Skean 09.02.12 Cinematic Soundtrack
Blue Bone MidiOrleans 09.01.12 Jazz (instrumental)
Wayfaring Stranger Dadai.2 09.01.12 Acoustic Rock
MJ Has Been ? egobandit 08.31.12 Art Rock
08312012 aka Baby Elephant SCJohnson59 08.31.12 Jazz (instrumental)
The Tournament Narad 08.31.12 Classical
The Star Spangled Banner SmokeyVW 08.29.12 Political
Lost Boy Loob 08.28.12 Country-Western
Fancy Limousiners sammydix 08.28.12 Rock
Someday (Glastonstock 2012) bud 08.27.12 Other
Badass Puppies (rmx) Les_Kloo 08.27.12 Rock (instrumental)
WAY DOWN THE LINE KCsGROOVE 08.27.12 Rock
Pick Yourself Up michaeljayklein 08.24.12 Easy Listening
Hayashi Natsumi particledots 08.23.12 Experimental
Wonna Gets Back My's Love Blues sammydix 08.21.12 Other
Underground Train Narad 08.21.12 Ambient
Let's Choose Today - Glastonbury 2012 Philip18 08.21.12 Acoustic
Has Anybody Seen My Gal? Jarvoid 08.19.12 Acoustic
Glorious Train Narad 08.19.12 Ambient
But A Rainbow's So Beautiful scaustrita 08.18.12 Country-Western
Servility Mk II grah3am 08.17.12 Folk-Rock
Watchin' Girls Go By richard13 08.17.12 Dub
Cupid, Slow It Down Songwriterz 08.17.12 Pop (mainstream)
whales breathe (woodstock 2012) dimm witness 08.17.12 Acoustic Rock
whales breathe (woodstock 2012) dimm witness 08.17.12 Acoustic Rock
Nickels not dimes (Woodstock2012) egobandit 08.16.12 Psychedelic
Hand Me Down My Cane-Woodstock sammydix 08.16.12 Acoustic Rock
Millions Of Windmills Vic Holman 08.16.12 Art Rock
Firebird Narad 08.16.12 Classical
The Spirit Lives On - by Catherine_B Symphony101 08.15.12 Cinematic Soundtrack
drunk monk ste 08.14.12 Other
I Only Cry TommyBlueBoy 08.14.12 Jazz (vocal)
Things Must Change / Jazz-funk vox needed Loob 08.14.12 Open Collaborations
These are not tears DavidConnell 08.13.12 Rock
My Cat (MJWS 2012) Doadars Uncle 08.13.12 Rock
Chocolate Moose/Sax Mr. Fab Daugrin 08.11.12 Jazz Fusion
(Woodstock Redux No.19__) Change J_Gretch 08.11.12 Rock
what you questioning egobandit 08.11.12 Alternative Rock
beautiful surprise : egobandit 08.10.12 Psychedelic
The Trickledown Blues (Woodstock 2012) bud 08.10.12 Folk-Rock
Coming For You (Woodstock 2012) B. Flat 08.10.12 Blues (contemporary)
No U Turn (Woodstock 2012) MJ Band davisamerica 08.10.12 Rock
A More Deserving Man (Woodstock 2012) alackbass 08.10.12 Acoustic Rock
Motherless Child - (Woodstock 2012) Philip18 08.10.12 Folk (traditional)
Walking On The Moon (Woodstock 2012) SmokeyVW 08.10.12 Folk-Rock
Walking On The Moon (Woodstock 2012) SmokeyVW 08.10.12 Folk-Rock
For the Children-woodstock 2012 FEEL 08.10.12 Rock
Resurrection of Life Final Mix! (w/ Loob, Rok41, Symphony101, Gadzooks) neilh79 08.07.12 Acoustic Rock
Struggle and Strive Skean 08.07.12 Ambient
Veo Shivers 08.06.12 Acoustic
Not The Marryin' Kind Moviz 08.06.12 Rock
It's Just as Well (Gaylen75, Sigmund, Ritter) rok41 08.05.12 Rock
Resurrection of Life (w/ Loob, Rok41, Symphony101, Gadzooks) neilh79 08.05.12 Funk
Forgiveness sewer rod 08.05.12 Rock (instrumental)
peter's foundations woofer3 08.05.12 Alternative Rock
I Can't - With James Holliday, Chris Flyn, Mike Watkins, Matt Smith speedonl 08.05.12 Indie Rock
heat ste 08.05.12 Pop (Alternative)
CS20 DrToasty 08.04.12 Cinematic Soundtrack
16 Bit Affair kickliquid 08.04.12 Alternative Rock
"Over Easy" abzwork 08.04.12 Jazz Fusion
Comet DarienLHernandez 08.03.12 Jazz (instrumental)
XXX Skean 08.03.12 Open Collaborations
the Japanese admiral who lives by the sea. woofer3 08.03.12 A Cappella
Lose Me CrazeeFlootGrrl 08.02.12 Pop (Alternative)
Untied geschwarztes 08.01.12 Acoustic
Stronger Garni 08.01.12 Pop (Alternative)
Back to Brazil simonlau 08.01.12 Samba
08012012 aka Heaven's Eyes SCJohnson59 07.31.12 Rhythm and Blues
breaking the chains JBurns 07.31.12 Acoustic Rock
"Ms. Fancy"" abzwork 07.31.12 Jazz Fusion
9/11 VBS Memorial Stand By Daugrin 07.30.12 Informational
Where Have You Gone Bob Rodgers 07.30.12 Acoustic
Slipping Away Loob 07.30.12 Pop (mainstream)
Slipping Away Loob 07.30.12 Pop (mainstream)
In a Mental Way grah3am 07.30.12 Reggae
B E A U T I F U L lengold 07.30.12 Other
tigers in daisies egobandit 07.29.12 Art Rock
DANCE OF THE CLOWNS Bowman 07.29.12 Cinematic Soundtrack
Just A Man..... Soundhound 07.29.12 Rhythm and Blues
BASEMENT BOOGIE KCsGROOVE 07.29.12 Funk
Life is a River Moviz 07.28.12 Pop (Alternative)
07282012 aka You SCJohnson59 07.28.12 Rhythm and Blues
"RockWell 2" abzwork 07.28.12 Rock (instrumental)
Go Home Relic67 07.28.12 Pop (Alternative)
Cheverly Bacons Never Dies shavingronaldscar 07.28.12 Lo-fi
Opening Ceremony bud 07.27.12 Punk-Grunge
Insect Anxiety Les_Kloo 07.25.12 Progressive Rock
Fuurthur South (Bogata Three) Outtaorbit 07.24.12 Jazz Fusion
_'Voodoo Spell'_'Evolution On The One' TvRicky 07.24.12 Jazz Fusion
Lying to myself J_Gretch 07.23.12 Rock
I Have These Memories Loob 07.22.12 Blues (contemporary)
Bill Grogan's Goat alackbass 07.22.12 Children's Music
Ricky Romance musichead 07.21.12 Acoustic Rock
All I Do is Dream of You michaeljayklein 07.21.12 Easy Listening
Tomorrow by Saltaireguru77 w/ lholden Symphony101 07.20.12 Alternative Rock
Guitars in the Moonlight Philip18 07.20.12 Smooth Jazz
bent/K.I.S.KISMET tokai 07.19.12 Trip Hop
i don't know dimm witness 07.18.12 Alternative Rock
WONDERING 2 KCsGROOVE 07.18.12 Rock
Don't Wish Your Dreams Away TomFairnie 07.18.12 Acoustic
Bliss PaddyNavinCaryatid 07.17.12 Bluegrass
The World is Dew Les_Kloo 07.17.12 Art Rock
Bird of Paradise Baz 07.16.12 Acoustic
Deep Fried Funk simonlau 07.16.12 Funk
"Voodoo Secrets" evolution 2 abzwork 07.15.12 Ethnic-International
Wings through the Window jobu 07.15.12 Other
L.A. Suite dak 07.15.12 Progressive Rock
Just Like A Man Garni 07.15.12 Industrial
Fly Cheeto 07.15.12 Alternative Rock
Variations On A Meme SmokeyVW 07.14.12 Other
Sing by Jerry Quinn alackbass 07.14.12 Acoustic Rock
escape jottdee 07.14.12 Easy Listening
The Loon and the Hula Moon (mstr) rtcooper 07.14.12 Folk-Rock
Cheverly Bacons Shakes the Hand of Butterlungs McMarbletonwuffer shavingronaldscar 07.13.12 Other
The Madrigal Maiden Meets The Loneliest Monk Alimar 07.13.12 Jazz (instrumental)
Sparkling train Narad 07.13.12 Ambient
HIDE...With Stephanie Kay.... Soundhound 07.13.12 Dub
after the love is gone egobandit 07.12.12 Art Rock
07122012 aka Still Somebody's Boo SCJohnson59 07.12.12 Rhythm and Blues
Whales Dig It Elevator_Funk 07.12.12 Ambient
Grandma's calling! VicDiesel 07.11.12 Informational
So Cool Skean 07.11.12 Electronic
You Had It Coming Vic Holman 07.10.12 Indie Rock
Cupid, Slow It Down (teaser) Songwriterz 07.10.12 Pop (mainstream)
That Sexy Smile w/KTB/Scofugate/Bassjam04/Sigmund Gaylen75 07.09.12 Rock
Let it Go FlatRock2 07.09.12 Acoustic Rock
Underworld Narad 07.09.12 Ambient
stops for transit Mystified 07.09.12 Other
Fall In (Live Version) dak 07.08.12 Acoustic Rock
I'm Crazy 'Bout My Baby with IBSTRAT michaeljayklein 07.08.12 Smooth Jazz
Corrina, Corrina Philip18 07.07.12 Folk (traditional)
New Years on Mt Olympus by FLY lholden 07.07.12 Pop (mainstream)
Hail Tubby bud 07.07.12 Dub
Happy-N-Uknowit... gator4040 07.07.12 Children's Music
Axolotl Relic67 07.07.12 Rock (instrumental)
Doors spitlogic 07.07.12 Hip Hop-Rap
Carry Me Down - feat. strangedream and rok41 Sigmund 07.06.12 Rock
Rock ( At The Top of The Park) Ann Arbor ,MI Feter 07.05.12 Rock
Division... Soundhound 07.05.12 Rhythm and Blues
All is Well davajonah 07.05.12 Ambient
Slightly Overcast Tre-L F/ Axl J Foley axljfoley 07.05.12 Emo
cat in the sheepskin hat egobandit 07.05.12 Art Rock
07052012 aka I See You SCJohnson59 07.05.12 Rhythm and Blues
_'Voodoo Secrets'_'Evolution on the One' TvRicky 07.04.12 Ethnic-International
Native Urge Featuring Sammy Dixon scaustrita 07.04.12 Funk
Underground Gaylen75 07.04.12 Electropop
The Dark Road Garni 07.03.12 Pop (Alternative)
"LipGloss" abzwork 07.02.12 Industrial
Silk Purse to A Sows Ear Jarvoid 07.01.12 Folk-Rock
A7 by the Seashore bud 06.29.12 Ambient
There'll Be No Loving by Jerry_Quinn w/ Ryan, Dad, ktb, gadzooks, scofugate alackbass 06.29.12 Country-Western
Silence Of Darkness w/ Vic Holman Symphony101 06.28.12 Alternative Rock
Wee Weed Up in Oz Daugrin 06.27.12 Informational
"Can You See" abzwork 06.27.12 Jazz (vocal)
lottery Ticket egobandit 06.27.12 Art Rock
Enjoy The Ride Philip18 06.27.12 Rock & Roll
Ugly MJReunionNAR 06.26.12 Ballad
Rainbow 'Round My Shoulder michaeljayklein 06.26.12 Swing
Life's a Song grah3am 06.26.12 Rock
Blackwater (by Tokai) ktb 06.25.12 Rock (instrumental)
In Some Other World tonestones 06.25.12 Progressive Rock
Secret Whisper Garni 06.25.12 Piano
Ready For You II/Terraplane sammydix 06.24.12 Funk
The Clockwork Cat grah3am 06.24.12 Ambient
"A Dream Come True" abzwork 06.24.12 Ethnic-International
Wrongway Relic67 06.23.12 Acoustic Rock
Qaynah VicDiesel 06.23.12 Other
Sacred & Profane alackbass 06.22.12 Acoustic
Dawn's Eyes fleshed out SCJohnson59 06.22.12 Rhythm and Blues
Safe (w/ Particledots) michael2 06.20.12 Easy Listening
Desoloop Demeter7 06.20.12 Ambient
plastic fork egobandit 06.19.12 Psychedelic
Abaporu Loob 06.17.12 Latin Jazz
Now the love is gone (W/Char) Skean 06.16.12 Electronic
Kawaiku Nai Yo Daugrin 06.16.12 Ethnic-International
A Dream DavidConnell 06.16.12 Easy Listening
The Broken Swing Philip18 06.15.12 Acoustic
All I Need in progress take 3 SCJohnson59 06.15.12 Rhythm and Blues
I Am A Toon SmokeyVW 06.14.12 Other
undefined egobandit 06.13.12 Art Rock
Fix Ourselves Garni 06.13.12 Pop (Alternative)
Nothing You Can Say w/ Jerry_Quinn, Ryan, ktb, & scofugate alackbass 06.12.12 Rock
Good Company pablatone 06.12.12 Acoustic
Beyond Our Sight (feat Romy Harmony) chinaman2 06.12.12 Indie Rock
"Cosmic Transport" abzwork 06.12.12 Downtempo
The Duel of Zenabi segiperkasa 06.12.12 Rock (instrumental)
Five-O Dub davajonah 06.12.12 Dub
bryn particledots 06.12.12 Pop Classical
Open Up And Soar Loob 06.11.12 Jazz (instrumental)
The Miner's Grave Six-Nail-Coffin 06.11.12 Acoustic Rock
Do What You're Going To Do Vic Holman 06.10.12 Acoustic
D Recodes Vinylhack 06.10.12 Dance-Club
"Breakfast Show" abzwork 06.10.12 Jazz (instrumental)
Athera's Water AndeeScott 06.10.12 House
Inside Out... LouisLacey 06.10.12 Soul
Copy Cat Rag 060912 georgeptingley 06.09.12 Ragtime
Rain In The Desert elfdaughter 06.09.12 New Age
Distant Train Narad 06.09.12 Ambient
Let Down (DWH w/Alannah) Alannah 06.08.12 Other
Back In The World in progress SCJohnson59 06.08.12 Rhythm and Blues
A Quiet Town Bowman 06.08.12 Cinematic Soundtrack
Now the Love is Gone, a capella PaulaMunk 06.08.12 Open Collaborations
Anytime Anywhere (Acoustic) musicalsin 06.08.12 Acoustic
Twisted neilh79 06.08.12 Acoustic
Steam Engine II Narad 06.08.12 Ambient
When I'm Lonely Daniel 06.08.12 Ballad
Karaoke Bumper SCJohnson59 06.07.12 Rhythm and Blues
"Equinox 2" abzwork 06.07.12 Other
Do Your Worst michael2 06.06.12 Electropop
Revelation Three Cat Clem 06.06.12 Blues (contemporary)
East of Asia sammydix 06.06.12 Alternative Rock
Hypnotizing Leon 06.06.12 Rock
more (w/tokai) carbon 06.05.12 Rock
life is sweet pablatone 06.05.12 Acoustic
Fifty-One paul f. page 06.04.12 Piano
Fly Garni 06.04.12 Dance-Club
Pride saSHguitAR 06.04.12 Acoustic
Big Ears Put The Panic On! Daugrin 06.04.12 Indie Rock
_'PmptilIdie'_ TvRicky 06.04.12 House
"Da Filthy Funk" abzwork 06.03.12 Rock
Slapback (w/Vic Holman) lavalamp 06.03.12 Rock (instrumental)
By The Water with Loob (Freddy), Kurt Baumer, and shizack lyzak 06.03.12 Folk-Rock
Valarty & Craft - Shovunz (Original mix) craft 06.03.12 House
In Trouble (the devil made me do it) with Loob Philip18 06.02.12 Blues (traditional)
Dangerous Times Loob 06.02.12 Rock
metanoia/Bent_Axis tokai 06.02.12 Celtic
Spring Relic67 06.01.12 Pop (Alternative)
Spring Relic67 06.01.12 Pop (Alternative)
I'll Make You Strong (collab w/Symphony101 & Melsi) Songwriterz 06.01.12 Ballad
I Don't Want to Hear by Jerry Quinn w/ Ryan & Loob alackbass 06.01.12 Latin Jazz
Stay (Medicine Show) davisamerica 06.01.12 Acoustic Rock
Stay (jiguma/awigze/vic holman/davisamerica2) davisamerica 06.01.12 Other
Favorite MacJammers (23)
Fans (92)
Music Background
Music Skills
Music Hardware
Music Software
Keywords